createdAt,value
2019-02-19T00:01:01.544Z,99.90
2019-02-19T00:03:30.186Z,99.90
2019-02-19T00:06:04.328Z,99.90
2019-02-19T00:12:02.114Z,99.90
2019-02-19T00:14:30.684Z,99.90
2019-02-19T00:16:59.257Z,99.90
2019-02-19T00:19:27.840Z,99.90
2019-02-19T00:21:56.405Z,99.90
2019-02-19T00:24:25.001Z,99.90
2019-02-19T00:26:53.577Z,99.90
2019-02-19T00:29:22.168Z,99.90
2019-02-19T00:31:51.500Z,99.90
2019-02-19T00:34:20.114Z,99.90
2019-02-19T00:36:48.669Z,99.90
2019-02-19T00:39:17.263Z,99.90
2019-02-19T00:41:45.828Z,99.90
2019-02-19T00:44:14.413Z,99.90
2019-02-19T00:46:42.981Z,99.90
2019-02-19T00:49:11.572Z,99.90
2019-02-19T00:51:40.141Z,99.90
2019-02-19T00:54:08.724Z,99.90
2019-02-19T00:56:37.285Z,99.90
2019-02-19T00:59:05.877Z,99.90
2019-02-19T01:01:34.448Z,99.90
2019-02-19T01:04:03.040Z,99.90
2019-02-19T01:06:31.605Z,99.90
2019-02-19T01:09:00.193Z,99.90
2019-02-19T01:11:28.765Z,99.90
2019-02-19T01:13:57.355Z,99.90
2019-02-19T01:16:25.988Z,99.90
2019-02-19T01:18:54.576Z,99.90
2019-02-19T01:21:23.145Z,99.90
2019-02-19T01:23:51.737Z,99.90
2019-02-19T01:26:20.879Z,99.90
2019-02-19T01:28:49.460Z,99.90
2019-02-19T01:31:18.027Z,99.90
2019-02-19T01:33:46.613Z,99.90
2019-02-19T01:36:15.249Z,99.90
2019-02-19T01:38:43.838Z,99.90
2019-02-19T01:41:12.404Z,99.90
2019-02-19T01:43:42.010Z,99.90
2019-02-19T01:46:10.573Z,99.90
2019-02-19T01:48:39.155Z,99.90
2019-02-19T01:51:07.795Z,99.90
2019-02-19T01:53:36.380Z,99.90
2019-02-19T01:56:05.047Z,99.90
2019-02-19T01:58:33.636Z,99.90
2019-02-19T02:01:02.261Z,99.90
2019-02-19T02:03:30.919Z,99.90
2019-02-19T02:05:59.499Z,99.90
2019-02-19T02:08:28.085Z,99.90
2019-02-19T02:10:56.659Z,99.90
2019-02-19T02:13:25.269Z,99.90
2019-02-19T02:15:53.917Z,99.90
2019-02-19T02:18:22.496Z,99.90
2019-02-19T02:20:51.157Z,99.90
2019-02-19T02:23:19.742Z,99.90
2019-02-19T02:25:48.325Z,99.90
2019-02-19T02:28:16.878Z,99.90
2019-02-19T02:30:45.572Z,99.90
2019-02-19T02:33:14.137Z,99.90
2019-02-19T02:35:42.727Z,99.90
2019-02-19T02:38:11.285Z,99.90
2019-02-19T02:40:39.894Z,99.90
2019-02-19T02:43:08.452Z,99.90
2019-02-19T02:45:37.031Z,99.90
2019-02-19T02:48:05.623Z,99.90
2019-02-19T02:50:34.272Z,99.90
2019-02-19T02:53:02.881Z,99.90
2019-02-19T02:55:31.474Z,99.90
2019-02-19T02:58:00.023Z,99.90
2019-02-19T03:00:28.632Z,99.90
2019-02-19T03:02:57.198Z,99.90
2019-02-19T03:05:25.779Z,99.90
2019-02-19T03:07:56.010Z,99.90
2019-02-19T03:10:24.612Z,99.90
2019-02-19T03:12:53.196Z,99.90
2019-02-19T03:15:21.824Z,99.90
2019-02-19T03:17:50.384Z,99.90
2019-02-19T03:20:18.977Z,99.90
2019-02-19T03:22:47.536Z,99.90
2019-02-19T03:25:16.124Z,99.90
2019-02-19T03:27:44.683Z,99.90
2019-02-19T03:30:13.358Z,99.90
2019-02-19T03:32:42.019Z,99.90
2019-02-19T03:35:10.688Z,99.90
2019-02-19T03:37:39.239Z,99.90
2019-02-19T03:40:08.673Z,99.90
2019-02-19T03:42:37.612Z,99.90
2019-02-19T03:45:08.432Z,99.90
2019-02-19T03:47:36.991Z,99.90
2019-02-19T03:50:06.415Z,99.90
2019-02-19T03:52:34.980Z,99.90
2019-02-19T03:55:03.731Z,99.90
2019-02-19T03:57:32.661Z,99.90
2019-02-19T04:00:01.316Z,99.90
2019-02-19T04:02:29.942Z,99.90
2019-02-19T04:04:58.644Z,99.90
2019-02-19T04:07:27.197Z,99.90
2019-02-19T04:09:55.783Z,99.90
2019-02-19T04:12:24.340Z,99.90
2019-02-19T04:14:52.920Z,99.90
2019-02-19T04:17:21.483Z,99.90
2019-02-19T04:19:50.063Z,99.90
2019-02-19T04:22:18.644Z,99.90
2019-02-19T04:24:47.232Z,99.90
2019-02-19T04:27:15.820Z,99.90
2019-02-19T04:29:44.382Z,99.90
2019-02-19T04:32:12.983Z,99.90
2019-02-19T04:34:41.568Z,99.90
2019-02-19T04:37:10.176Z,99.90
2019-02-19T04:39:38.734Z,99.90
2019-02-19T04:42:07.336Z,99.90
2019-02-19T04:44:35.900Z,99.90
2019-02-19T04:47:04.549Z,99.90
2019-02-19T04:49:33.120Z,99.90
2019-02-19T04:52:01.709Z,99.90
2019-02-19T04:54:30.265Z,99.90
2019-02-19T04:56:58.876Z,99.90
2019-02-19T04:59:27.441Z,99.90
2019-02-19T05:01:56.020Z,99.90
2019-02-19T05:04:24.577Z,99.90
2019-02-19T05:06:53.164Z,99.90
2019-02-19T05:09:21.737Z,99.90
2019-02-19T05:11:50.352Z,99.90
2019-02-19T05:14:18.905Z,99.90
2019-02-19T05:16:47.497Z,99.90
2019-02-19T05:19:16.081Z,99.90
2019-02-19T05:21:44.678Z,99.90
2019-02-19T05:24:13.256Z,99.90
2019-02-19T05:26:41.833Z,99.90
2019-02-19T05:29:10.400Z,99.90
2019-02-19T05:31:39.059Z,99.90
2019-02-19T05:34:07.632Z,99.90
2019-02-19T05:36:36.204Z,99.90
2019-02-19T05:39:06.028Z,99.90
2019-02-19T05:41:34.640Z,99.90
2019-02-19T05:44:03.213Z,99.90
2019-02-19T05:46:31.826Z,99.90
2019-02-19T05:49:00.383Z,99.90
2019-02-19T05:51:29.061Z,99.90
2019-02-19T05:53:57.755Z,99.90
2019-02-19T05:56:26.309Z,99.90
2019-02-19T05:58:54.863Z,99.90
2019-02-19T06:01:23.456Z,99.90
2019-02-19T06:03:52.101Z,99.90
2019-02-19T06:06:20.683Z,99.90
2019-02-19T06:08:49.253Z,99.90
2019-02-19T06:11:17.862Z,99.90
2019-02-19T06:13:46.422Z,99.90
2019-02-19T06:16:15.012Z,99.90
2019-02-19T06:18:43.572Z,99.90
2019-02-19T06:21:12.155Z,99.90
2019-02-19T06:23:40.732Z,99.90
2019-02-19T06:26:09.319Z,99.90
2019-02-19T06:28:37.879Z,99.90
2019-02-19T06:31:06.468Z,99.90
2019-02-19T06:33:35.029Z,99.90
2019-02-19T06:36:03.687Z,99.90
2019-02-19T06:38:32.256Z,99.90
2019-02-19T06:41:02.008Z,99.90
2019-02-19T06:43:30.789Z,99.90
2019-02-19T06:45:59.385Z,99.90
2019-02-19T06:48:27.953Z,99.90
2019-02-19T06:50:56.515Z,99.90
2019-02-19T06:53:25.128Z,99.90
2019-02-19T06:55:53.686Z,99.90
2019-02-19T06:58:22.337Z,99.90
2019-02-19T07:00:50.991Z,99.00
2019-02-19T07:03:21.204Z,98.00
2019-02-19T07:05:49.815Z,95.80
2019-02-19T07:08:18.360Z,94.50
2019-02-19T07:10:46.925Z,92.80
2019-02-19T07:13:15.569Z,93.40
2019-02-19T07:15:44.212Z,92.50
2019-02-19T07:18:12.795Z,90.60
2019-02-19T07:20:41.368Z,90.80
2019-02-19T07:23:09.954Z,87.50
2019-02-19T07:25:38.581Z,84.30
2019-02-19T07:28:07.166Z,81.40
2019-02-19T07:30:35.724Z,80.60
2019-02-19T07:33:04.378Z,78.50
2019-02-19T07:35:32.959Z,77.20
2019-02-19T07:38:01.528Z,76.50
2019-02-19T07:40:30.088Z,75.20
2019-02-19T07:42:58.668Z,72.80
2019-02-19T07:45:27.220Z,73.90
2019-02-19T07:47:55.797Z,72.30
2019-02-19T07:50:24.351Z,70.90
2019-02-19T07:52:52.938Z,69.00
2019-02-19T07:55:21.511Z,68.60
2019-02-19T07:57:50.107Z,67.70
2019-02-19T08:00:18.659Z,66.00
2019-02-19T08:02:47.244Z,66.30
2019-02-19T08:05:15.792Z,64.40
2019-02-19T08:07:44.372Z,63.00
2019-02-19T08:10:13.228Z,60.20
2019-02-19T08:12:41.806Z,61.60
2019-02-19T08:15:11.607Z,61.10
2019-02-19T08:17:40.323Z,62.40
2019-02-19T08:20:15.924Z,64.50
2019-02-19T08:22:40.087Z,66.40
2019-02-19T08:25:08.699Z,68.00
2019-02-19T08:27:37.312Z,65.80
2019-02-19T08:30:08.671Z,62.70
2019-02-19T08:32:37.288Z,60.90
2019-02-19T08:35:07.216Z,59.10
2019-02-19T08:37:35.797Z,59.80
2019-02-19T08:40:05.288Z,63.30
2019-02-19T08:42:33.876Z,61.00
2019-02-19T08:45:02.502Z,59.00
2019-02-19T08:47:31.103Z,57.20
2019-02-19T08:49:59.686Z,55.80
2019-02-19T08:52:28.265Z,55.80
2019-02-19T08:54:56.896Z,55.50
2019-02-19T08:57:25.465Z,54.10
2019-02-19T08:59:54.049Z,54.40
2019-02-19T09:02:25.436Z,55.20
2019-02-19T09:04:54.021Z,54.40
2019-02-19T09:07:22.613Z,52.70
2019-02-19T09:09:51.183Z,53.20
2019-02-19T09:12:19.743Z,52.50
2019-02-19T09:14:49.442Z,52.60
2019-02-19T09:17:17.996Z,52.00
2019-02-19T09:19:46.670Z,50.30
2019-02-19T09:22:15.224Z,51.10
2019-02-19T09:24:43.817Z,50.10
2019-02-19T09:27:12.400Z,51.60
2019-02-19T09:29:40.984Z,52.10
2019-02-19T09:32:09.551Z,51.50
2019-02-19T09:34:38.135Z,52.10
2019-02-19T09:37:06.737Z,50.80
2019-02-19T09:39:35.339Z,50.20
2019-02-19T09:42:04.052Z,52.10
2019-02-19T09:44:32.628Z,52.70
2019-02-19T09:47:01.204Z,53.50
2019-02-19T09:49:29.780Z,52.90
2019-02-19T09:51:58.371Z,51.40
2019-02-19T09:54:26.961Z,48.40
2019-02-19T09:56:55.592Z,47.80
2019-02-19T09:59:24.205Z,50.00
2019-02-19T10:01:52.764Z,51.70
2019-02-19T10:04:21.340Z,50.20
2019-02-19T10:06:49.905Z,49.10
2019-02-19T10:09:18.484Z,48.10
2019-02-19T10:11:47.116Z,48.80
2019-02-19T10:14:15.691Z,49.20
2019-02-19T10:16:44.272Z,47.20
2019-02-19T10:19:12.857Z,45.40
2019-02-19T10:21:41.433Z,45.70
2019-02-19T10:24:09.993Z,46.60
2019-02-19T10:26:38.567Z,46.60
2019-02-19T10:29:07.120Z,45.40
2019-02-19T10:31:35.704Z,46.10
2019-02-19T10:34:04.331Z,44.60
2019-02-19T10:36:32.944Z,45.10
2019-02-19T10:39:01.517Z,45.50
2019-02-19T10:41:30.093Z,47.10
2019-02-19T10:43:58.664Z,48.60
2019-02-19T10:46:27.300Z,47.20
2019-02-19T10:48:55.859Z,48.10
2019-02-19T10:51:24.450Z,49.70
2019-02-19T10:53:53.108Z,48.70
2019-02-19T10:56:21.776Z,49.80
2019-02-19T10:58:50.361Z,49.90
2019-02-19T11:01:19.004Z,47.80
2019-02-19T11:03:47.628Z,48.90
2019-02-19T11:06:16.237Z,48.60
2019-02-19T11:08:44.783Z,47.00
2019-02-19T11:11:13.364Z,45.80
2019-02-19T11:13:41.991Z,46.30
2019-02-19T11:16:10.596Z,46.30
2019-02-19T11:18:39.160Z,49.00
2019-02-19T11:21:07.816Z,48.60
2019-02-19T11:23:36.404Z,50.10
2019-02-19T11:26:05.099Z,50.10
2019-02-19T11:28:33.669Z,49.20
2019-02-19T11:31:02.284Z,49.00
2019-02-19T11:33:30.839Z,48.40
2019-02-19T11:35:59.389Z,49.10
2019-02-19T11:38:27.975Z,51.60
2019-02-19T11:40:56.536Z,51.00
2019-02-19T11:43:25.115Z,52.40
2019-02-19T11:45:53.690Z,55.60
2019-02-19T11:48:22.276Z,59.20
2019-02-19T11:50:50.902Z,59.90
2019-02-19T11:53:19.480Z,59.30
2019-02-19T11:55:48.045Z,57.90
2019-02-19T11:58:16.639Z,56.80
2019-02-19T12:00:45.664Z,56.10
2019-02-19T12:03:14.261Z,55.30
2019-02-19T12:05:42.812Z,54.80
2019-02-19T12:08:11.393Z,53.00
2019-02-19T12:10:39.950Z,52.70
2019-02-19T12:13:08.599Z,53.10
2019-02-19T12:15:37.183Z,54.90
2019-02-19T12:18:05.899Z,52.10
2019-02-19T12:20:34.477Z,49.10
2019-02-19T12:23:03.064Z,48.90
2019-02-19T12:25:31.624Z,49.90
2019-02-19T12:28:00.250Z,51.40
2019-02-19T12:30:28.848Z,52.70
2019-02-19T12:32:57.434Z,54.90
2019-02-19T12:35:26.080Z,54.90
2019-02-19T12:37:54.652Z,55.90
2019-02-19T12:40:23.287Z,55.20
2019-02-19T12:42:51.890Z,55.50
2019-02-19T12:45:20.539Z,55.70
2019-02-19T12:47:49.115Z,55.00
2019-02-19T12:50:18.940Z,52.00
2019-02-19T12:52:47.516Z,51.10
2019-02-19T12:55:16.100Z,51.00
2019-02-19T12:57:44.690Z,47.00
2019-02-19T13:00:17.827Z,48.20
2019-02-19T13:02:46.398Z,46.80
2019-02-19T13:05:15.804Z,46.10
2019-02-19T13:07:44.424Z,45.80
2019-02-19T13:10:13.202Z,44.90
2019-02-19T13:12:41.835Z,45.90
2019-02-19T13:15:15.410Z,46.70
2019-02-19T13:17:43.972Z,49.20
2019-02-19T13:20:14.120Z,50.60
2019-02-19T13:22:42.811Z,51.20
2019-02-19T13:25:12.168Z,52.50
2019-02-19T13:27:40.787Z,54.00
2019-02-19T13:30:21.168Z,56.00
2019-02-19T13:32:49.751Z,56.50
2019-02-19T13:35:18.346Z,57.70
2019-02-19T13:37:47.071Z,59.60
2019-02-19T13:40:21.772Z,61.20
2019-02-19T13:42:50.334Z,62.50
2019-02-19T13:45:18.920Z,63.80
2019-02-19T13:47:47.498Z,64.10
2019-02-19T13:50:26.442Z,65.20
2019-02-19T13:53:02.800Z,66.70
2019-02-19T13:55:33.083Z,64.80
2019-02-19T13:58:01.716Z,63.50
2019-02-19T14:00:32.040Z,64.00
2019-02-19T14:03:00.998Z,63.30
2019-02-19T14:05:29.531Z,62.60
2019-02-19T14:07:58.236Z,62.60
2019-02-19T14:10:26.927Z,63.10
2019-02-19T14:12:59.626Z,62.50
2019-02-19T14:15:46.238Z,63.50
2019-02-19T14:18:16.552Z,64.90
2019-02-19T14:20:52.501Z,67.20
2019-02-19T14:23:22.699Z,64.70
2019-02-19T14:25:52.944Z,65.00
2019-02-19T14:28:25.751Z,65.30
2019-02-19T14:31:04.579Z,65.60
2019-02-19T14:33:37.241Z,65.20
2019-02-19T14:36:10.650Z,65.30
2019-02-19T14:38:40.860Z,65.30
2019-02-19T14:41:11.083Z,65.60
2019-02-19T14:43:46.837Z,65.70
2019-02-19T14:46:22.820Z,65.00
2019-02-19T14:48:55.547Z,66.20
2019-02-19T14:51:31.647Z,67.00
2019-02-19T14:54:01.864Z,67.50
2019-02-19T14:56:32.084Z,68.40
2019-02-19T15:02:09.566Z,70.40
2019-02-19T15:04:42.982Z,70.00
2019-02-19T15:07:13.555Z,70.70
2019-02-19T15:09:52.913Z,70.70
2019-02-19T15:12:23.133Z,71.00
2019-02-19T15:18:16.257Z,70.50
2019-02-19T15:20:55.746Z,71.20
2019-02-19T15:23:25.968Z,70.60
2019-02-19T15:25:58.951Z,71.20
2019-02-19T15:28:41.167Z,70.90
2019-02-19T15:31:27.548Z,71.20
2019-02-19T15:33:57.747Z,71.20
2019-02-19T15:36:36.914Z,71.30
2019-02-19T15:39:13.581Z,71.30
2019-02-19T15:41:46.796Z,70.70
2019-02-19T15:44:20.074Z,71.40
2019-02-19T15:46:50.287Z,70.90
2019-02-19T15:49:29.551Z,71.70
2019-02-19T15:52:16.058Z,71.80
2019-02-19T15:55:01.577Z,72.30
2019-02-19T15:57:31.841Z,72.00
2019-02-19T16:00:18.541Z,72.30
2019-02-19T16:02:48.833Z,72.50
2019-02-19T16:05:31.292Z,73.00
2019-02-19T16:08:01.535Z,73.50
2019-02-19T16:10:34.742Z,74.90
2019-02-19T16:13:13.915Z,74.70
2019-02-19T16:18:42.387Z,77.00
2019-02-19T16:21:12.724Z,77.30
2019-02-19T16:23:45.987Z,76.70
2019-02-19T16:26:34.296Z,77.30
2019-02-19T16:29:07.299Z,77.70
2019-02-19T16:31:43.676Z,80.00
2019-02-19T16:34:17.163Z,79.60
2019-02-19T16:36:49.839Z,79.10
2019-02-19T16:39:20.164Z,79.30
2019-02-19T16:41:50.389Z,80.70
2019-02-19T16:44:27.716Z,81.20
2019-02-19T16:47:10.108Z,81.30
2019-02-19T16:49:43.265Z,83.50
2019-02-19T16:52:13.451Z,85.10
2019-02-19T16:55:09.921Z,87.60
2019-02-19T16:57:46.127Z,88.90
2019-02-19T17:00:28.580Z,90.30
2019-02-19T17:02:58.810Z,90.60
2019-02-19T17:05:44.381Z,91.70
2019-02-19T17:08:26.656Z,92.70
2019-02-19T17:11:06.077Z,93.90
2019-02-19T17:13:39.339Z,94.50
2019-02-19T17:16:09.529Z,96.40
2019-02-19T17:18:57.972Z,96.80
2019-02-19T17:21:34.041Z,97.30
2019-02-19T17:24:06.896Z,97.70
2019-02-19T17:26:52.129Z,98.90
2019-02-19T17:29:22.347Z,99.50
2019-02-19T17:32:01.381Z,99.70
2019-02-19T17:34:31.628Z,99.90
2019-02-19T17:37:07.967Z,99.90
2019-02-19T17:39:38.628Z,99.90
2019-02-19T17:42:08.824Z,99.90
2019-02-19T17:44:55.578Z,99.90
2019-02-19T17:47:25.968Z,99.90
2019-02-19T17:49:58.928Z,99.90
2019-02-19T17:52:43.992Z,99.90
2019-02-19T17:55:14.210Z,99.90
2019-02-19T17:57:47.560Z,99.90
2019-02-19T18:00:20.749Z,99.90
2019-02-19T18:02:51.083Z,99.90
2019-02-19T18:05:37.463Z,99.90
2019-02-19T18:08:15.101Z,99.90
2019-02-19T18:11:03.701Z,99.90
2019-02-19T18:13:33.883Z,99.90
2019-02-19T18:16:06.936Z,99.90
2019-02-19T18:18:37.238Z,99.90
2019-02-19T18:21:05.903Z,99.90
2019-02-19T18:23:34.455Z,99.90
2019-02-19T18:26:03.025Z,99.90
2019-02-19T18:28:31.575Z,99.90
2019-02-19T18:31:00.172Z,99.90
2019-02-19T18:33:28.728Z,99.90
2019-02-19T18:35:57.326Z,99.90
2019-02-19T18:38:25.959Z,99.90
2019-02-19T18:40:54.610Z,99.90
2019-02-19T18:43:23.115Z,99.90
2019-02-19T18:45:51.700Z,99.90
2019-02-19T18:48:20.295Z,99.90
2019-02-19T18:50:56.426Z,99.90
2019-02-19T18:53:19.174Z,99.90
2019-02-19T18:55:47.827Z,99.90
2019-02-19T18:58:16.412Z,99.90
2019-02-19T19:00:44.989Z,99.90
2019-02-19T19:03:13.560Z,99.90
2019-02-19T19:05:42.179Z,99.90
2019-02-19T19:08:10.732Z,99.90
2019-02-19T19:10:39.289Z,99.90
2019-02-19T19:13:07.861Z,99.90
2019-02-19T19:15:36.417Z,99.90
2019-02-19T19:18:05.067Z,99.90
2019-02-19T19:20:33.612Z,99.90
2019-02-19T19:23:02.213Z,99.90
2019-02-19T19:25:30.832Z,99.90
2019-02-19T19:27:59.599Z,99.90
2019-02-19T19:30:28.278Z,99.90
2019-02-19T19:32:56.856Z,99.90
2019-02-19T19:35:41.281Z,99.90
2019-02-19T19:38:09.845Z,99.90
2019-02-19T19:40:38.429Z,99.90
2019-02-19T19:43:07.051Z,99.90
2019-02-19T19:45:35.745Z,99.90
2019-02-19T19:48:04.388Z,99.90
2019-02-19T19:50:32.940Z,99.90
2019-02-19T19:53:01.545Z,99.90
2019-02-19T19:55:30.189Z,99.90
2019-02-19T19:57:58.761Z,99.90
2019-02-19T20:00:27.400Z,99.90
2019-02-19T20:02:55.956Z,99.90
2019-02-19T20:05:24.750Z,99.90
2019-02-19T20:07:53.359Z,99.90
2019-02-19T20:10:21.972Z,99.90
2019-02-19T20:12:50.580Z,99.90
2019-02-19T20:15:19.127Z,99.90
2019-02-19T20:17:47.708Z,99.90
2019-02-19T20:20:16.271Z,99.90
2019-02-19T20:22:44.868Z,99.90
2019-02-19T20:25:14.155Z,99.90
2019-02-19T20:27:42.760Z,99.90
2019-02-19T20:30:14.032Z,99.90
2019-02-19T20:32:42.678Z,99.90
2019-02-19T20:35:11.505Z,99.90
2019-02-19T20:37:40.330Z,99.90
2019-02-19T20:40:12.740Z,99.90
2019-02-19T20:42:41.523Z,99.90
2019-02-19T20:45:11.884Z,99.90
2019-02-19T20:47:40.569Z,99.90
2019-02-19T20:50:11.011Z,99.90
2019-02-19T20:52:39.645Z,99.90
2019-02-19T20:55:10.085Z,99.90
2019-02-19T20:57:38.687Z,99.90
2019-02-19T21:00:32.204Z,99.90
2019-02-19T21:03:00.784Z,99.90
2019-02-19T21:05:29.365Z,99.90
2019-02-19T21:07:57.985Z,99.90
2019-02-19T21:10:26.561Z,99.90
2019-02-19T21:12:55.117Z,99.90
2019-02-19T21:15:23.679Z,99.90
2019-02-19T21:17:52.228Z,99.90
2019-02-19T21:20:22.110Z,99.90
2019-02-19T21:22:50.760Z,99.90
2019-02-19T21:25:20.079Z,99.90
2019-02-19T21:27:48.588Z,99.90
2019-02-19T21:30:17.402Z,99.90
2019-02-19T21:32:45.951Z,99.90
2019-02-19T21:35:14.668Z,99.90
2019-02-19T21:37:43.320Z,99.90
2019-02-19T21:40:13.332Z,99.90
2019-02-19T21:42:41.906Z,99.90
2019-02-19T21:45:12.878Z,99.90
2019-02-19T21:47:41.538Z,99.90
2019-02-19T21:50:11.640Z,99.90
2019-02-19T21:52:40.362Z,99.90
2019-02-19T21:55:12.907Z,99.90
2019-02-19T21:57:41.529Z,99.90
2019-02-19T22:00:13.725Z,99.90
2019-02-19T22:02:42.374Z,99.90
2019-02-19T22:05:11.219Z,99.90
2019-02-19T22:07:39.770Z,99.90
2019-02-19T22:10:12.870Z,99.90
2019-02-19T22:12:41.507Z,99.90
2019-02-19T22:15:12.480Z,99.90
2019-02-19T22:17:41.068Z,99.90
2019-02-19T22:20:37.978Z,99.90
2019-02-19T22:23:06.900Z,99.90
2019-02-19T22:25:35.549Z,99.90
2019-02-19T22:28:04.299Z,99.90
2019-02-19T22:30:32.886Z,99.90
2019-02-19T22:33:01.440Z,99.90
2019-02-19T22:35:30.026Z,99.90
2019-02-19T22:37:58.604Z,99.90
2019-02-19T22:40:27.185Z,99.90
2019-02-19T22:42:55.745Z,99.90
2019-02-19T22:45:24.343Z,99.90
2019-02-19T22:47:53.633Z,99.90
2019-02-19T22:50:22.481Z,99.90
2019-02-19T22:52:51.209Z,99.90
2019-02-19T22:55:37.957Z,99.90
2019-02-19T22:58:06.639Z,99.90
2019-02-19T23:00:48.700Z,99.90
2019-02-19T23:03:22.068Z,99.90
2019-02-19T23:05:50.639Z,99.90
2019-02-19T23:08:19.201Z,99.90
2019-02-19T23:10:47.780Z,99.90
2019-02-19T23:13:16.331Z,99.90
2019-02-19T23:15:44.916Z,99.90
2019-02-19T23:18:13.468Z,99.90
2019-02-19T23:20:42.208Z,99.90
2019-02-19T23:23:10.764Z,99.90
2019-02-19T23:25:39.421Z,99.90
2019-02-19T23:28:08.039Z,99.90
2019-02-19T23:30:36.640Z,99.90
2019-02-19T23:33:05.279Z,99.90
2019-02-19T23:35:35.515Z,99.90
2019-02-19T23:38:04.231Z,99.90
2019-02-19T23:40:32.860Z,99.90
2019-02-19T23:43:01.433Z,99.90
2019-02-19T23:45:30.052Z,99.90
2019-02-19T23:47:58.629Z,99.90
2019-02-19T23:50:27.193Z,99.90
2019-02-19T23:52:55.776Z,99.90
2019-02-19T23:55:24.348Z,99.90
2019-02-19T23:57:52.909Z,99.90
